Аэропорт: Владикавказ (Беслан). Владикавказ

ICAO: URMO

METAR:
2020-08-09 23:00:00
URMO 092300Z AUTO 09001MPS 9999 // ///150/// 18/17 Q1010 RMK QFE714/0952
METAR:
2020-08-09 14:00:00
TAF URMO 091400Z 0915/0924 10003G08MPS 9999 BKN030 TEMPO 0915/0918 VRB08G20MPS 1100 TSRA SCT012 BKN030CB